Time;durP1;ratioP1;P1;durP2;ratioP2;P2;SDS_P1;SDS_P2;PMS_P1;PMS_P2;Temp;Humidity;BMP_temperature;BMP_pressure;BME280_temperature;BME280_humidity;BME280_pressure;Samples;Min_cycle;Max_cycle;Signal;HPM_P1;HPM_P2
2023/05/26 00:01:52;;;;;;;2.90;1.92;;;;;;;17.13;79.17;99631.78;5090871;28;20068;-79
2023/05/26 00:04:18;;;;;;;4.00;2.85;;;;;;;17.18;79.30;99645.81;5100953;28;20097;-79
2023/05/26 00:06:46;;;;;;;3.97;2.65;;;;;;;17.12;79.16;99644.25;5109128;28;20038;-79
2023/05/26 00:09:14;;;;;;;5.32;2.90;;;;;;;17.22;79.20;99644.72;5111024;28;20027;-82
2023/05/26 00:11:41;;;;;;;6.00;2.33;;;;;;;17.09;79.11;99635.53;5111105;28;20058;-81
2023/05/26 00:14:06;;;;;;;4.00;2.28;;;;;;;17.03;78.04;99623.34;5108830;28;20024;-81
2023/05/26 00:16:31;;;;;;;4.55;3.00;;;;;;;16.80;78.79;99611.81;5110245;28;20116;-81
2023/05/26 00:18:57;;;;;;;5.65;4.03;;;;;;;16.76;79.11;99630.66;5110549;28;20412;-81
2023/05/26 00:21:22;;;;;;;4.60;3.17;;;;;;;16.57;80.45;99635.88;5110357;28;20031;-81
2023/05/26 00:23:48;;;;;;;15.57;4.00;;;;;;;16.37;80.05;99589.59;5110750;28;20457;-81
2023/05/26 00:26:13;;;;;;;5.85;2.85;;;;;;;16.76;79.48;99634.19;5108975;28;20404;-81
2023/05/26 00:28:39;;;;;;;4.45;2.78;;;;;;;16.61;79.43;99632.16;5110045;28;20485;-81
2023/05/26 00:31:04;;;;;;;3.75;2.85;;;;;;;16.70;79.39;99658.41;5110370;28;20051;-81
2023/05/26 00:33:30;;;;;;;4.68;2.40;;;;;;;16.50;79.26;99627.28;5110423;28;20030;-81
2023/05/26 00:35:55;;;;;;;6.50;3.03;;;;;;;16.40;80.05;99640.06;5099290;28;20047;-81
2023/05/26 00:38:20;;;;;;;4.55;2.03;;;;;;;16.63;79.39;99651.59;5102547;28;20031;-80
2023/05/26 00:40:46;;;;;;;5.68;2.88;;;;;;;16.60;79.66;99654.38;5110464;28;20032;-81
2023/05/26 00:43:11;;;;;;;5.95;2.97;;;;;;;16.59;79.78;99652.63;5094221;28;20065;-81
2023/05/26 00:45:37;;;;;;;5.53;2.80;;;;;;;16.59;80.10;99653.53;5091164;28;20512;-81
2023/05/26 00:48:04;;;;;;;2.38;1.90;;;;;;;16.60;79.97;99660.56;5089916;28;20482;-81
2023/05/26 00:50:30;;;;;;;3.45;2.10;;;;;;;16.51;79.59;99630.78;5089807;28;20035;-81
2023/05/26 00:52:56;;;;;;;5.07;2.28;;;;;;;16.63;77.73;99660.44;5089698;28;20028;-81
2023/05/26 00:55:23;;;;;;;5.25;2.72;;;;;;;16.34;78.14;99648.28;5090341;28;20082;-80
2023/05/26 00:57:49;;;;;;;4.22;2.40;;;;;;;16.29;77.76;99653.78;5091018;28;20184;-80
2023/05/26 01:00:15;;;;;;;3.70;2.90;;;;;;;16.06;78.00;99632.53;5090162;28;20632;-79
2023/05/26 01:02:41;;;;;;;4.05;2.60;;;;;;;15.85;78.31;99603.19;5097737;28;20036;-80
2023/05/26 01:05:08;;;;;;;3.28;2.35;;;;;;;16.07;78.07;99629.81;5110023;28;20119;-80
2023/05/26 01:07:33;;;;;;;4.07;2.25;;;;;;;16.04;77.57;99629.09;5098349;28;20043;-80
2023/05/26 01:09:59;;;;;;;12.80;2.67;;;;;;;16.09;77.58;99621.78;5109939;28;20546;-80
2023/05/26 01:12:33;;;;;;;5.22;2.47;;;;;;;16.19;78.13;99655.09;5109746;28;20088;-80
2023/05/26 01:15:05;;;;;;;3.25;2.33;;;;;;;16.26;78.34;99658.38;5094729;28;20489;-80
2023/05/26 01:17:52;;;;;;;4.10;2.50;;;;;;;16.03;79.24;99630.00;5090889;28;20116;-80
2023/05/26 01:20:26;;;;;;;2.58;1.67;;;;;;;16.11;79.23;99654.50;5093687;28;20089;-80
2023/05/26 01:23:11;;;;;;;11.50;3.03;;;;;;;15.79;78.59;99631.81;5093359;28;20028;-80
2023/05/26 01:25:48;;;;;;;2.22;1.63;;;;;;;15.56;79.85;99628.19;5093447;28;20028;-80
2023/05/26 01:28:21;;;;;;;4.65;3.60;;;;;;;15.63;80.67;99647.41;5094679;28;20104;-80
2023/05/26 01:30:50;;;;;;;3.47;2.53;;;;;;;15.65;79.12;99643.78;5101102;28;20492;-80
2023/05/26 01:33:16;;;;;;;3.45;2.30;;;;;;;15.78;78.89;99646.03;5093124;28;20032;-80
2023/05/26 01:35:42;;;;;;;3.47;2.40;;;;;;;15.71;78.68;99630.28;5093402;28;20111;-80
2023/05/26 01:38:08;;;;;;;4.07;2.78;;;;;;;15.81;78.76;99645.91;5093312;28;20063;-80
2023/05/26 01:40:34;;;;;;;2.92;2.28;;;;;;;15.75;79.00;99642.53;5093604;28;20028;-80
2023/05/26 01:43:09;;;;;;;3.53;2.60;;;;;;;15.67;79.12;99625.97;5093942;28;20192;-81
2023/05/26 01:46:00;;;;;;;7.17;2.80;;;;;;;15.91;79.02;99669.47;5093416;28;20027;-80
2023/05/26 01:48:26;;;;;;;5.82;2.53;;;;;;;15.83;78.47;99644.91;5084019;28;20402;-81
2023/05/26 01:50:56;;;;;;;3.00;1.75;;;;;;;15.81;78.57;99662.72;5093615;28;20028;-81
2023/05/26 01:53:29;;;;;;;9.65;1.88;;;;;;;15.84;78.05;99675.06;5105536;28;20526;-81
2023/05/26 01:55:57;;;;;;;2.65;2.03;;;;;;;15.86;78.24;99679.38;5113499;28;20027;-80
2023/05/26 01:58:24;;;;;;;4.55;2.17;;;;;;;15.58;78.73;99639.63;5111640;28;20052;-81
2023/05/26 02:00:50;;;;;;;2.88;1.75;;;;;;;15.79;77.71;99658.41;5093190;28;20059;-80
2023/05/26 02:03:16;;;;;;;7.05;2.05;;;;;;;15.84;77.76;99678.56;5094288;28;20054;-82
2023/05/26 02:05:42;;;;;;;3.28;1.85;;;;;;;15.67;78.29;99679.16;5093327;28;20047;-79
2023/05/26 02:08:10;;;;;;;11.60;2.30;;;;;;;15.59;77.71;99657.31;5110010;28;20028;-79
2023/05/26 02:10:36;;;;;;;2.53;1.55;;;;;;;15.44;78.08;99650.75;5112061;28;20043;-79
2023/05/26 02:13:01;;;;;;;2.55;1.65;;;;;;;15.41;77.45;99653.50;5105200;28;20473;-80
2023/05/26 02:15:27;;;;;;;3.08;2.20;;;;;;;15.55;77.54;99684.91;5113046;28;20027;-79
2023/05/26 02:17:57;;;;;;;1.60;1.17;;;;;;;15.39;77.92;99672.16;5111759;28;20030;-80
2023/05/26 02:20:23;;;;;;;5.15;1.77;;;;;;;15.21;77.61;99649.78;5113188;28;20035;-79
2023/05/26 02:22:49;;;;;;;4.40;2.30;;;;;;;15.34;77.63;99662.66;5113023;28;20050;-78
2023/05/26 02:25:14;;;;;;;3.83;2.13;;;;;;;15.37;78.50;99667.84;5112670;28;20481;-79
2023/05/26 02:27:39;;;;;;;;;;;;;;;15.38;78.79;99685.50;5111199;28;20059;-80
2023/05/26 02:30:06;;;;;;;2.33;1.58;;;;;;;15.29;78.80;99683.19;5112323;28;19927;-79
2023/05/26 02:32:31;;;;;;;3.22;1.95;;;;;;;15.19;78.70;99648.09;5112961;28;20032;-79
2023/05/26 02:34:58;;;;;;;3.03;2.13;;;;;;;15.38;77.39;99672.22;5112232;28;20030;-79
2023/05/26 02:37:26;;;;;;;2.08;1.67;;;;;;;15.11;78.21;99652.81;5098007;28;20536;-80
2023/05/26 02:39:52;;;;;;;4.88;2.65;;;;;;;15.19;78.90;99686.16;5099770;28;20051;-80
2023/05/26 02:42:17;;;;;;;4.22;2.35;;;;;;;14.93;79.70;99660.47;5107987;28;20473;-80
2023/05/26 02:44:43;;;;;;;3.60;2.10;;;;;;;15.14;79.58;99698.72;5092099;28;20028;-80
2023/05/26 02:47:08;;;;;;;4.85;2.80;;;;;;;15.20;79.40;99698.53;5093019;28;20022;-80
2023/05/26 02:49:35;;;;;;;3.15;2.05;;;;;;;14.98;79.25;99679.78;5092155;28;20035;-80
2023/05/26 02:52:00;;;;;;;4.00;1.88;;;;;;;14.97;78.90;99663.91;5092214;28;20032;-79
2023/05/26 02:54:25;;;;;;;3.67;1.70;;;;;;;14.94;79.16;99674.63;5092109;28;20434;-80
2023/05/26 02:56:51;;;;;;;3.90;2.15;;;;;;;14.92;79.08;99639.28;5091369;28;20036;-79
2023/05/26 02:59:16;;;;;;;4.07;2.40;;;;;;;14.99;79.48;99673.53;5108165;28;20177;-80
2023/05/26 03:01:42;;;;;;;8.88;1.95;;;;;;;15.00;79.58;99667.31;5103523;28;20084;-80
2023/05/26 03:04:07;;;;;;;2.55;1.95;;;;;;;15.25;78.82;99686.88;5111552;28;20027;-80
2023/05/26 03:06:33;;;;;;;3.72;2.30;;;;;;;15.34;77.93;99706.03;5111888;28;20024;-80
2023/05/26 03:08:58;;;;;;;2.20;1.58;;;;;;;15.16;79.21;99704.84;5111837;28;20092;-80
2023/05/26 03:11:23;;;;;;;5.57;3.35;;;;;;;15.19;78.69;99704.75;5110248;28;20454;-81
2023/05/26 03:13:49;;;;;;;2.40;1.60;;;;;;;15.09;77.98;99663.50;5098863;28;20035;-80
2023/05/26 03:16:14;;;;;;;2.47;1.17;;;;;;;15.14;77.71;99681.94;5107250;28;20028;-80
2023/05/26 03:18:40;;;;;;;3.17;2.28;;;;;;;15.09;78.24;99676.78;5111507;28;20482;-80
2023/05/26 03:21:06;;;;;;;2.63;1.73;;;;;;;15.27;78.10;99699.19;5111404;28;20402;-80
2023/05/26 03:23:33;;;;;;;4.78;2.80;;;;;;;15.15;78.95;99708.44;5111365;28;20035;-79
2023/05/26 03:25:58;;;;;;;3.25;1.88;;;;;;;15.21;78.67;99676.34;5109842;28;20066;-80
2023/05/26 03:28:24;;;;;;;2.92;1.75;;;;;;;15.38;79.15;99696.16;5111087;27;20059;-80
2023/05/26 03:30:51;;;;;;;5.32;2.65;;;;;;;15.29;78.79;99665.47;5111281;28;20477;-80
2023/05/26 03:33:16;;;;;;;3.42;2.28;;;;;;;15.45;79.25;99696.81;5108878;28;20034;-80
2023/05/26 03:35:42;;;;;;;7.07;1.50;;;;;;;15.37;79.68;99675.81;5096679;28;20107;-80
2023/05/26 03:38:07;;;;;;;2.50;1.42;;;;;;;15.45;79.66;99695.03;5111687;28;20075;-80
2023/05/26 03:40:32;;;;;;;;;;;;;;;15.44;80.56;99706.56;5102359;28;20032;-80
2023/05/26 03:42:58;;;;;;;8.85;1.98;;;;;;;15.58;80.67;99699.00;5090269;28;19969;-80
2023/05/26 03:45:23;;;;;;;3.22;2.00;;;;;;;15.66;79.88;99677.44;5090704;28;20062;-79
2023/05/26 03:47:49;;;;;;;5.50;2.47;;;;;;;15.80;79.78;99698.25;5091920;28;20034;-80
2023/05/26 03:50:15;;;;;;;3.75;2.75;;;;;;;15.68;80.23;99670.28;5088472;28;20044;-80
2023/05/26 03:52:40;;;;;;;3.63;2.58;;;;;;;15.92;79.88;99697.78;5088987;28;20471;-80
2023/05/26 03:55:09;;;;;;;5.03;2.85;;;;;;;15.88;81.16;99701.50;5090880;28;20033;-82
2023/05/26 03:57:35;;;;;;;4.18;2.70;;;;;;;15.86;80.57;99673.22;5090376;28;20180;-80
2023/05/26 04:00:03;;;;;;;10.05;3.33;;;;;;;15.80;80.31;99655.69;5090461;28;20514;-81
2023/05/26 04:02:28;;;;;;;4.35;2.83;;;;;;;15.95;79.92;99685.31;5092647;28;20105;-81
2023/05/26 04:04:54;;;;;;;3.50;2.42;;;;;;;16.00;80.49;99693.97;5096692;28;20469;-79
2023/05/26 04:07:19;;;;;;;4.10;2.63;;;;;;;16.10;79.70;99679.41;5099900;28;20499;-80
2023/05/26 04:09:45;;;;;;;2.08;1.70;;;;;;;16.25;80.03;99685.91;5106477;28;20020;-80
2023/05/26 04:12:10;;;;;;;7.80;3.55;;;;;;;16.38;80.18;99702.31;5099032;28;20493;-81
2023/05/26 04:14:36;;;;;;;3.83;2.20;;;;;;;16.43;79.86;99687.00;5092223;28;20404;-80
2023/05/26 04:17:01;;;;;;;3.70;2.45;;;;;;;16.39;80.40;99688.94;5090061;28;20186;-80
2023/05/26 04:19:27;;;;;;;3.55;2.30;;;;;;;16.60;80.35;99711.16;5091514;28;20032;-80
2023/05/26 04:21:52;;;;;;;9.88;2.80;;;;;;;16.60;79.96;99687.19;5097789;28;20019;-81
2023/05/26 04:24:18;;;;;;;3.47;1.83;;;;;;;16.63;79.91;99684.41;5089928;28;20046;-80
2023/05/26 04:26:43;;;;;;;3.83;2.58;;;;;;;16.82;78.15;99689.00;5091311;28;20059;-80
2023/05/26 04:29:09;;;;;;;4.15;2.40;;;;;;;17.09;77.50;99718.16;5088545;28;20138;-80
2023/05/26 04:31:40;;;;;;;3.88;2.50;;;;;;;17.28;76.77;99734.22;5090636;28;20665;-80
2023/05/26 04:34:06;;;;;;;4.95;2.72;;;;;;;17.29;75.73;99717.31;5089622;28;20062;-81
2023/05/26 04:36:32;;;;;;;8.40;3.30;;;;;;;17.43;74.50;99704.25;5090902;28;20063;-80
2023/05/26 04:38:58;;;;;;;11.43;3.45;;;;;;;17.30;74.48;99687.94;5093767;28;20027;-82
2023/05/26 04:41:24;;;;;;;6.97;3.70;;;;;;;17.69;74.29;99713.78;5099590;28;20461;-83
2023/05/26 04:43:50;;;;;;;7.40;3.85;;;;;;;17.68;74.34;99680.03;5092370;28;20040;-83
2023/05/26 04:46:16;;;;;;;11.15;3.95;;;;;;;18.10;74.25;99738.72;5106108;28;20107;-82
2023/05/26 04:48:42;;;;;;;5.70;3.95;;;;;;;18.03;73.24;99709.63;5108095;28;20042;-80
2023/05/26 04:51:07;;;;;;;9.93;3.58;;;;;;;18.20;73.15;99732.03;5109458;28;20024;-82
2023/05/26 04:53:33;;;;;;;7.88;4.50;;;;;;;18.17;72.92;99708.16;5109058;28;20030;-82
2023/05/26 04:56:02;;;;;;;14.25;4.60;;;;;;;18.31;73.27;99728.88;5109012;28;20110;-82
2023/05/26 04:58:28;;;;;;;4.88;3.13;;;;;;;18.40;74.29;99736.44;5111471;28;20044;-82
2023/05/26 05:00:56;;;;;;;7.55;3.50;;;;;;;18.19;75.52;99704.44;5112936;28;20028;-81
2023/05/26 05:03:22;;;;;;;6.55;3.55;;;;;;;18.07;75.25;99683.66;5114302;28;20127;-82
2023/05/26 05:05:48;;;;;;;5.25;3.13;;;;;;;18.18;75.65;99709.84;5106096;28;20027;-82
2023/05/26 05:08:14;;;;;;;3.10;2.35;;;;;;;18.35;75.64;99747.34;5111260;27;20035;-82
2023/05/26 05:10:39;;;;;;;12.38;3.47;;;;;;;18.55;73.25;99722.38;5111095;28;20027;-82
2023/05/26 05:13:05;;;;;;;5.78;3.30;;;;;;;18.50;73.89;99735.06;5109363;28;20492;-82
2023/05/26 05:15:31;;;;;;;5.15;2.58;;;;;;;18.40;73.34;99699.06;5108141;28;20039;-80
2023/05/26 05:17:58;;;;;;;5.15;2.20;;;;;;;18.26;74.82;99697.03;5112507;28;20445;-80
2023/05/26 05:20:26;;;;;;;3.40;2.28;;;;;;;18.56;73.13;99694.69;5106617;28;20015;-81
2023/05/26 05:22:53;;;;;;;5.85;3.28;;;;;;;18.81;72.79;99711.38;5112712;28;20477;-81
2023/05/26 05:25:18;;;;;;;4.40;2.35;;;;;;;18.83;73.25;99709.47;5091693;28;20405;-81
2023/05/26 05:27:44;;;;;;;5.15;3.08;;;;;;;18.93;73.14;99724.16;5102260;28;20028;-80
2023/05/26 05:30:11;;;;;;;4.57;2.30;;;;;;;19.05;70.99;99733.41;5113690;28;20026;-81
2023/05/26 05:32:36;;;;;;;6.47;2.55;;;;;;;18.89;71.53;99717.22;5113033;28;20396;-82
2023/05/26 05:35:02;;;;;;;10.05;2.67;;;;;;;18.86;72.64;99701.34;5113219;28;20019;-81
2023/05/26 05:37:27;;;;;;;3.70;2.40;;;;;;;18.92;71.79;99720.63;5113112;28;20020;-81
2023/05/26 05:39:53;;;;;;;7.03;3.45;;;;;;;18.90;70.32;99703.78;5113541;28;20136;-81
2023/05/26 05:42:21;;;;;;;5.65;2.53;;;;;;;18.79;70.64;99728.31;5112443;28;20372;-83
2023/05/26 05:44:47;;;;;;;2.97;2.22;;;;;;;18.42;73.33;99660.66;5103222;28;20042;-83
2023/05/26 05:47:12;;;;;;;7.28;3.15;;;;;;;18.76;74.62;99701.75;5112246;28;20032;-83
2023/05/26 05:49:38;;;;;;;9.88;3.33;;;;;;;19.20;71.83;99708.56;5110623;28;20027;-84
2023/05/26 05:52:03;;;;;;;11.80;3.88;;;;;;;19.30;69.18;99715.16;5113660;28;20039;-82
2023/05/26 05:54:29;;;;;;;5.57;2.28;;;;;;;18.96;71.18;99699.94;5109862;28;20035;-83
2023/05/26 05:56:54;;;;;;;6.43;2.63;;;;;;;19.22;71.53;99724.53;5113259;28;20027;-83
2023/05/26 05:59:19;;;;;;;4.40;2.58;;;;;;;18.97;69.95;99707.03;5111103;28;20044;-83
2023/05/26 06:01:45;;;;;;;4.68;1.92;;;;;;;19.32;68.51;99723.09;5112688;27;20020;-84
2023/05/26 06:04:10;;;;;;;10.55;2.47;;;;;;;19.40;68.96;99709.34;5101764;28;20020;-84
2023/05/26 06:06:36;;;;;;;2.33;1.67;;;;;;;19.46;68.12;99701.00;5112011;28;20566;-84
2023/05/26 06:09:01;;;;;;;4.28;2.20;;;;;;;19.39;67.41;99683.56;5102114;28;20028;-85
2023/05/26 06:11:27;;;;;;;4.88;2.00;;;;;;;19.47;67.48;99722.31;5098186;28;20031;-85
2023/05/26 06:13:52;;;;;;;3.65;2.28;;;;;;;19.68;66.68;99719.50;5101941;28;20031;-81
2023/05/26 06:16:18;;;;;;;3.13;1.98;;;;;;;19.73;67.04;99730.81;5105953;28;20032;-80
2023/05/26 06:18:43;;;;;;;3.10;2.25;;;;;;;19.68;64.64;99714.16;5105553;28;20076;-81
2023/05/26 09:04:46;;;;;;;2.70;1.48;;;;;;;23.36;59.09;99790.91;5148363;27;20380;-82
2023/05/26 09:07:12;;;;;;;3.83;2.05;;;;;;;23.86;58.20;99803.75;5148886;27;20500;-84
2023/05/26 09:09:37;;;;;;;4.30;1.98;;;;;;;23.97;57.54;99785.03;5148279;27;20027;-84
2023/05/26 09:12:10;;;;;;;3.58;2.28;;;;;;;23.91;57.59;99771.97;5148078;27;20385;-85
2023/05/26 09:14:36;;;;;;;7.75;1.85;;;;;;;24.13;56.12;99795.63;5147820;27;20031;-85
2023/05/26 09:17:02;;;;;;;4.57;1.90;;;;;;;24.03;55.03;99765.75;5145613;27;20355;-84
2023/05/26 09:19:28;;;;;;;8.23;2.55;;;;;;;23.95;55.08;99768.97;5148515;27;20031;-84
2023/05/26 09:21:54;;;;;;;9.23;2.13;;;;;;;23.85;59.54;99780.47;5145536;27;20037;-85
2023/05/26 09:24:25;;;;;;;10.80;2.38;;;;;;;23.90;59.94;99752.28;5146718;27;20038;-85
2023/05/26 09:26:50;;;;;;;3.72;2.22;;;;;;;24.00;60.07;99739.00;5147675;27;20030;-85
2023/05/26 09:29:16;;;;;;;5.30;3.03;;;;;;;24.29;59.35;99760.34;5147363;27;20029;-83
2023/05/26 09:31:49;;;;;;;19.70;3.10;;;;;;;24.24;56.54;99752.59;5146760;27;20038;-84
2023/05/26 09:34:21;;;;;;;11.77;2.60;;;;;;;24.07;58.62;99755.63;5147648;27;20022;-83
2023/05/26 09:36:46;;;;;;;5.10;2.42;;;;;;;23.84;61.72;99725.75;5140255;27;20055;-83
2023/05/26 09:39:13;;;;;;;10.60;2.63;;;;;;;23.83;61.11;99720.47;5141026;27;20070;-83
2023/05/26 09:41:43;;;;;;;3.60;1.83;;;;;;;23.73;59.56;99741.78;5145019;27;20039;-83
2023/05/26 09:44:16;;;;;;;4.47;2.13;;;;;;;24.00;59.22;99682.44;5144531;27;20472;-84
2023/05/26 09:46:44;;;;;;;10.60;2.80;;;;;;;24.04;57.42;99712.75;5146744;27;20377;-84
2023/05/26 09:49:17;;;;;;;2.65;1.30;;;;;;;24.29;56.54;99738.78;5140984;27;20058;-82
2023/05/26 09:51:45;;;;;;;3.05;2.05;;;;;;;24.28;55.81;99720.88;5144149;27;20494;-83
2023/05/26 09:54:11;;;;;;;2.92;1.83;;;;;;;25.15;51.86;99732.53;5129252;27;20045;-83
2023/05/26 09:56:59;;;;;;;9.88;2.33;;;;;;;25.35;48.20;99716.69;5127357;27;20429;-82
2023/05/26 09:59:38;;;;;;;5.13;1.27;;;;;;;25.69;48.31;99692.50;5131719;27;20055;-82
2023/05/26 10:02:24;;;;;;;3.78;1.92;;;;;;;26.08;46.07;99712.81;5143951;27;20027;-83
2023/05/26 10:04:51;;;;;;;3.78;1.45;;;;;;;26.29;45.84;99698.59;5137429;27;20027;-83
2023/05/26 10:07:20;;;;;;;3.67;1.70;;;;;;;26.24;45.59;99676.44;5132905;27;20031;-82
2023/05/26 10:10:08;;;;;;;3.17;1.92;;;;;;;26.80;42.47;99684.50;5131294;27;20027;-88
2023/05/26 10:12:35;;;;;;;4.65;1.40;;;;;;;27.08;42.93;99686.72;5132702;27;20034;-84
2023/05/26 10:15:02;;;;;;;3.28;1.75;;;;;;;27.11;46.36;99683.75;5133184;27;20127;-92
2023/05/26 10:17:28;;;;;;;2.85;1.20;;;;;;;27.28;43.15;99657.97;5133756;27;20114;-84
2023/05/26 10:19:55;;;;;;;3.80;1.63;;;;;;;27.82;42.06;99675.03;5126995;27;20055;-84
2023/05/26 10:22:45;;;;;;;3.08;1.48;;;;;;;27.80;40.80;99655.34;5120316;27;20152;-83
2023/05/26 10:25:31;;;;;;;2.83;1.45;;;;;;;28.23;39.34;99675.97;5120219;27;20950;-84
2023/05/26 10:28:08;;;;;;;1.88;1.20;;;;;;;27.46;40.71;99644.72;5119241;27;20500;-87
2023/05/26 10:30:34;;;;;;;2.25;1.20;;;;;;;27.90;41.67;99636.41;5126005;27;20031;-85
2023/05/26 10:33:09;;;;;;;2.03;1.20;;;;;;;28.00;46.65;99653.59;5117481;27;20024;-84
2023/05/26 10:35:35;;;;;;;0.77;0.70;;;;;;;28.12;38.61;99625.41;5123230;27;20187;-85
2023/05/26 10:38:03;;;;;;;1.77;1.30;;;;;;;28.62;37.63;99640.81;5126830;27;20524;-84
2023/05/26 10:40:50;;;;;;;11.80;1.27;;;;;;;28.87;36.75;99616.84;5114662;27;20055;-84
2023/05/26 10:43:22;;;;;;;2.08;1.58;;;;;;;28.27;43.92;99625.00;5123367;27;20088;-85
2023/05/26 10:45:54;;;;;;;2.25;1.08;;;;;;;27.62;37.83;99595.47;5121718;27;20042;-85
2023/05/26 10:48:21;;;;;;;10.50;1.88;;;;;;;27.59;38.85;99614.72;5123147;27;20119;-83
2023/05/26 10:50:55;;;;;;;1.88;1.08;;;;;;;28.16;35.99;99624.16;5127206;27;20084;-84
2023/05/26 10:53:22;;;;;;;3.05;1.13;;;;;;;28.39;35.34;99597.66;5126605;27;20027;-84
2023/05/26 10:55:59;;;;;;;1.45;1.23;;;;;;;28.70;35.68;99622.00;5121674;27;20696;-84
2023/05/26 10:58:34;;;;;;;7.25;1.40;;;;;;;28.54;35.43;99616.22;5127218;27;20049;-84
2023/05/26 11:01:06;;;;;;;4.75;1.73;;;;;;;28.41;35.73;99594.81;5131633;27;20117;-84
2023/05/26 11:03:41;;;;;;;2.03;1.00;;;;;;;28.70;41.82;99603.00;5122502;27;20610;-85
2023/05/26 11:06:08;;;;;;;6.15;1.05;;;;;;;27.94;39.19;99597.19;5125687;27;20154;-85
2023/05/26 11:08:39;;;;;;;2.30;1.10;;;;;;;28.50;36.63;99560.53;5125516;27;20034;-85
2023/05/26 11:11:10;;;;;;;11.60;1.52;;;;;;;28.77;34.94;99576.16;5122287;27;20099;-86
2023/05/26 11:13:48;;;;;;;15.82;2.05;;;;;;;28.82;34.75;99573.00;5114160;27;20098;-85
2023/05/26 11:16:23;;;;;;;3.20;1.90;;;;;;;28.98;40.52;99567.84;5115691;27;20035;-85
2023/05/26 11:18:52;;;;;;;2.65;1.15;;;;;;;28.71;38.05;99545.00;5120158;27;20485;-85
2023/05/26 11:21:28;;;;;;;2.33;1.20;;;;;;;28.17;39.34;99513.81;5129564;27;20043;-85
2023/05/26 11:23:57;;;;;;;2.75;1.90;;;;;;;28.13;36.08;99534.06;5131232;27;20023;-86
2023/05/26 11:26:26;;;;;;;1.20;0.80;;;;;;;28.56;36.07;99565.38;5128197;27;20070;-84
2023/05/26 11:28:52;;;;;;;4.57;1.23;;;;;;;28.46;34.98;99543.69;5129503;27;20038;-84
2023/05/26 11:31:20;;;;;;;2.13;1.00;;;;;;;28.42;34.66;99546.81;5119638;27;20031;-85
2023/05/26 11:33:47;;;;;;;3.88;1.67;;;;;;;28.63;36.91;99547.59;5118217;27;20115;-86
2023/05/26 11:36:15;;;;;;;4.15;1.30;;;;;;;28.72;35.25;99530.44;5117190;27;20475;-86
2023/05/26 11:38:42;;;;;;;1.92;1.25;;;;;;;28.34;33.83;99520.41;5116735;27;20557;-87
2023/05/26 11:41:13;;;;;;;1.50;1.13;;;;;;;28.75;34.50;99548.31;5124996;27;20031;-91
2023/05/26 11:43:39;;;;;;;1.75;0.68;;;;;;;29.02;34.14;99535.84;5130510;27;20043;-88
2023/05/26 11:46:10;;;;;;;2.47;1.80;;;;;;;28.32;33.43;99511.56;5127550;27;20114;-85
2023/05/26 11:48:40;;;;;;;3.50;2.15;;;;;;;28.63;34.53;99531.31;5129515;27;20130;-86
2023/05/26 11:51:17;;;;;;;8.90;1.40;;;;;;;28.57;33.84;99531.84;5129483;27;20023;-84
2023/05/26 11:53:45;;;;;;;6.00;1.20;;;;;;;28.81;33.78;99508.84;5130657;27;20524;-86
2023/05/26 11:56:15;;;;;;;10.05;1.73;;;;;;;28.81;32.62;99514.28;5128089;27;20482;-85
2023/05/26 11:58:43;;;;;;;1.05;0.75;;;;;;;28.56;33.40;99508.41;5122500;27;20038;-85
2023/05/26 12:01:12;;;;;;;1.25;0.73;;;;;;;28.29;33.33;99507.28;5129247;27;20042;-87
2023/05/26 12:03:44;;;;;;;1.67;1.10;;;;;;;28.34;33.90;99490.56;5130323;27;20119;-88
2023/05/26 12:06:15;;;;;;;2.17;1.27;;;;;;;28.58;34.08;99472.03;5125867;27;20132;-88
2023/05/26 12:09:22;;;;;;;1.77;1.38;;;;;;;28.89;33.83;99506.28;5120335;27;20038;-87
2023/05/26 12:11:49;;;;;;;2.00;1.17;;;;;;;28.66;34.56;99468.63;5065818;28;20068;-85
2023/05/26 12:14:15;;;;;;;3.63;1.05;;;;;;;28.47;34.40;99474.88;5048937;28;20036;-85
2023/05/26 12:16:48;;;;;;;2.08;1.10;;;;;;;28.54;33.92;99476.00;5064838;28;20039;-86
2023/05/26 12:19:18;;;;;;;4.13;1.25;;;;;;;28.87;34.96;99505.56;5063421;28;20036;-87
2023/05/26 12:21:48;;;;;;;3.33;1.55;;;;;;;28.74;34.74;99474.16;5046367;28;20508;-88
2023/05/26 12:24:33;;;;;;;2.75;1.60;;;;;;;28.84;34.22;99495.00;5066125;28;20040;-86
2023/05/26 12:27:08;;;;;;;;;;;;;;;28.66;36.09;99501.16;5067373;28;20042;-84
2023/05/26 12:29:37;;;;;;;2.10;1.20;;;;;;;28.65;35.73;99491.31;5066761;28;19908;-87
2023/05/26 12:32:05;;;;;;;5.20;1.10;;;;;;;28.46;34.46;99507.59;5066570;28;20032;-88
2023/05/26 12:34:31;;;;;;;1.65;1.33;;;;;;;28.26;35.09;99464.16;5065387;28;20118;-87
2023/05/26 12:36:56;;;;;;;2.05;1.23;;;;;;;28.60;35.30;99490.91;5049719;28;20529;-86
2023/05/26 12:39:22;;;;;;;2.08;1.38;;;;;;;29.04;35.58;99499.41;5066628;28;20501;-87
2023/05/26 12:41:47;;;;;;;3.35;1.00;;;;;;;29.09;35.86;99475.38;5065911;28;20048;-86
2023/05/26 12:44:15;;;;;;;1.25;0.98;;;;;;;28.78;36.00;99479.28;5063638;28;20040;-88
2023/05/26 12:46:41;;;;;;;1.90;1.23;;;;;;;28.88;36.04;99474.72;5040892;28;20051;-86
2023/05/26 12:49:08;;;;;;;1.27;1.05;;;;;;;29.21;34.71;99489.66;5128080;27;20244;-86
2023/05/26 12:51:34;;;;;;;2.30;1.90;;;;;;;29.25;34.43;99493.78;5130308;27;20492;-86
2023/05/26 12:54:04;;;;;;;1.33;0.95;;;;;;;28.82;34.10;99448.16;5126394;28;20059;-87
2023/05/26 12:56:30;;;;;;;3.00;1.45;;;;;;;29.02;34.22;99467.97;5121739;27;20078;-88
2023/05/26 12:58:56;;;;;;;5.75;2.38;;;;;;;28.97;35.37;99468.41;5124832;27;20035;-86
2023/05/26 13:01:22;;;;;;;1.98;1.27;;;;;;;28.81;34.34;99454.56;5130372;27;20035;-88
2023/05/26 13:03:48;;;;;;;1.65;1.05;;;;;;;29.00;33.39;99470.81;5116964;28;20585;-87
2023/05/26 13:06:14;;;;;;;4.72;1.42;;;;;;;28.94;33.32;99476.84;5121422;28;20035;-89
2023/05/26 13:08:40;;;;;;;2.58;1.48;;;;;;;28.66;34.32;99495.75;5120588;27;20032;-89
2023/05/26 13:12:01;;;;;;;4.80;1.33;;;;;;;28.02;36.71;99430.22;5121558;27;20396;-89
2023/05/26 13:14:27;;;;;;;2.10;1.10;;;;;;;28.25;35.67;99457.03;5014107;28;20109;-88
2023/05/26 13:16:52;;;;;;;0.90;0.77;;;;;;;28.43;36.07;99454.47;5017393;28;20070;-87
2023/05/26 13:19:18;;;;;;;6.35;1.30;;;;;;;28.59;34.57;99481.03;5020259;28;20054;-87
2023/05/26 13:21:43;;;;;;;1.00;0.85;;;;;;;27.48;38.01;99455.84;5027322;28;20045;-86
2023/05/26 13:24:09;;;;;;;2.40;1.23;;;;;;;26.55;39.13;99457.59;5028704;28;20053;-88
2023/05/26 13:26:35;;;;;;;1.17;0.88;;;;;;;25.80;40.99;99479.09;5013719;28;20038;-85
2023/05/26 13:29:01;;;;;;;1.65;0.98;;;;;;;25.65;42.21;99483.03;5025485;28;20515;-88
2023/05/26 13:31:26;;;;;;;3.00;1.58;;;;;;;25.38;43.32;99470.78;5020133;28;20049;-86
2023/05/26 13:33:53;;;;;;;2.03;0.95;;;;;;;25.14;44.03;99449.28;5027891;28;20048;-84
2023/05/26 13:36:21;;;;;;;3.85;1.73;;;;;;;25.47;42.73;99480.84;5024199;28;20061;-86
2023/05/26 13:38:46;;;;;;;2.05;0.95;;;;;;;25.88;42.18;99471.19;5004110;28;20072;-84
2023/05/26 13:41:12;;;;;;;1.60;1.00;;;;;;;26.14;40.61;99464.66;5020039;28;20093;-84
2023/05/26 13:43:37;;;;;;;3.67;1.67;;;;;;;25.52;42.66;99458.88;5022012;28;20037;-85
2023/05/26 13:46:03;;;;;;;1.60;1.20;;;;;;;25.51;42.67;99435.56;5016029;28;20030;-85
2023/05/26 13:48:29;;;;;;;13.52;1.67;;;;;;;25.52;42.59;99473.22;5007125;28;20038;-84
2023/05/26 13:50:54;;;;;;;2.47;0.90;;;;;;;25.51;41.82;99427.44;5065434;27;20035;-84
2023/05/26 13:53:21;;;;;;;2.50;1.50;;;;;;;25.84;42.12;99480.56;5124251;27;20112;-85
2023/05/26 13:55:47;;;;;;;1.77;1.17;;;;;;;25.62;42.62;99489.53;5125587;27;20023;-86
2023/05/26 13:58:13;;;;;;;2.40;1.35;;;;;;;25.68;43.06;99453.09;5122618;27;20046;-84
2023/05/26 14:00:39;;;;;;;2.95;1.23;;;;;;;25.20;44.20;99462.28;5137295;27;20066;-83
2023/05/26 14:03:05;;;;;;;2.20;1.58;;;;;;;24.69;46.36;99468.97;5148407;27;20435;-83
2023/05/26 14:05:30;;;;;;;2.00;1.15;;;;;;;24.59;47.04;99481.41;5137109;27;20505;-82
2023/05/26 14:07:57;;;;;;;1.83;0.98;;;;;;;24.69;47.22;99495.06;5141513;27;20027;-84
2023/05/26 14:10:25;;;;;;;3.45;1.55;;;;;;;24.45;46.59;99434.81;5142719;27;20584;-81
2023/05/26 14:12:51;;;;;;;2.58;1.73;;;;;;;24.92;46.34;99479.81;5141265;27;20023;-84
2023/05/26 14:15:17;;;;;;;2.33;1.30;;;;;;;24.60;46.73;99462.44;5136959;27;20034;-85
2023/05/26 14:17:42;;;;;;;1.80;1.48;;;;;;;24.53;45.73;99455.78;5138062;27;20086;-86
2023/05/26 14:20:08;;;;;;;2.65;1.33;;;;;;;24.74;45.58;99480.25;5118793;27;20019;-85
2023/05/26 14:22:34;;;;;;;3.20;1.42;;;;;;;24.68;45.26;99486.09;5118595;27;20027;-84